Time;durP1;ratioP1;P1;durP2;ratioP2;P2;SDS_P1;SDS_P2;PMS_P1;PMS_P2;Temp;Humidity;BMP_temperature;BMP_pressure;BME280_temperature;BME280_humidity;BME280_pressure;Samples;Min_cycle;Max_cycle;Signal;HPM_P1;HPM_P2
2022/07/13 00:01:01;;;;;;;4.45;2.62;;;;;;;15.37;86.41;99211.80;4178834;83;21482;-81
2022/07/13 00:07:08;;;;;;;8.65;2.33;;;;;;;15.35;85.85;99214.74;4186179;82;20988;-81
2022/07/13 00:13:09;;;;;;;3.35;1.67;;;;;;;15.33;86.29;99211.62;4188417;83;20998;-81
2022/07/13 00:19:30;;;;;;;4.08;1.80;;;;;;;15.27;85.93;99198.83;4149770;84;21871;-81
2022/07/13 00:25:44;;;;;;;9.95;1.65;;;;;;;15.25;85.58;99208.70;4143465;84;21975;-81
2022/07/13 00:31:56;;;;;;;5.92;2.17;;;;;;;15.23;85.44;99216.58;4150149;84;21080;-83
2022/07/13 00:38:01;;;;;;;4.12;1.35;;;;;;;15.19;85.08;99213.06;4141553;84;21024;-82
2022/07/13 00:44:15;;;;;;;2.05;1.50;;;;;;;15.17;85.22;99208.53;4148768;84;21023;-82
2022/07/13 00:50:29;;;;;;;4.17;1.50;;;;;;;15.11;85.07;99210.91;4141151;84;21539;-82
2022/07/13 00:56:32;;;;;;;9.33;1.50;;;;;;;15.03;85.15;99218.23;4138969;83;21087;-82
2022/07/13 01:02:38;;;;;;;7.33;1.77;;;;;;;14.91;85.03;99218.06;4140573;84;21000;-82
2022/07/13 01:08:42;;;;;;;8.18;2.22;;;;;;;14.84;84.91;99207.07;4134982;84;21112;-81
2022/07/13 01:14:47;;;;;;;7.83;1.55;;;;;;;14.78;85.23;99204.53;4142611;84;21056;-82
2022/07/13 01:20:48;;;;;;;6.28;1.60;;;;;;;14.64;85.53;99205.94;4142075;84;21068;-83
2022/07/13 01:27:01;;;;;;;5.42;1.90;;;;;;;14.57;85.69;99203.77;4145478;84;21067;-82
2022/07/13 01:33:02;;;;;;;3.80;1.80;;;;;;;14.49;85.63;99201.62;4175503;82;21374;-81
2022/07/13 01:39:05;;;;;;;5.83;1.80;;;;;;;14.43;85.85;99196.31;4169422;84;21054;-82
2022/07/13 01:45:09;;;;;;;4.30;1.50;;;;;;;14.36;85.87;99192.78;4168577;84;21080;-84
2022/07/13 01:51:11;;;;;;;3.45;1.75;;;;;;;14.28;85.85;99199.48;4170882;84;21550;-82
2022/07/13 01:57:19;;;;;;;4.75;1.87;;;;;;;14.20;85.71;99202.19;4161808;84;21057;-82
2022/07/13 02:03:22;;;;;;;5.00;2.25;;;;;;;14.11;85.61;99200.42;4133709;84;21010;-81
2022/07/13 02:09:27;;;;;;;9.03;2.10;;;;;;;14.07;86.12;99212.04;4172459;82;21055;-81
2022/07/13 02:15:33;;;;;;;8.00;1.82;;;;;;;13.99;86.45;99207.70;4172098;83;21086;-81
2022/07/13 02:21:37;;;;;;;6.92;1.75;;;;;;;13.92;86.64;99204.93;4166421;84;21034;-82
2022/07/13 02:27:40;;;;;;;4.67;1.62;;;;;;;13.87;86.83;99204.55;4166427;84;21019;-82
2022/07/13 02:33:42;;;;;;;4.03;1.80;;;;;;;13.80;87.35;99203.14;4057215;86;21093;-84
2022/07/13 02:39:44;;;;;;;7.58;1.98;;;;;;;13.72;87.13;99198.80;4149230;84;21015;-82
2022/07/13 02:45:53;;;;;;;2.80;1.50;;;;;;;13.66;87.54;99200.37;4148142;84;21091;-82
2022/07/13 02:52:00;;;;;;;3.30;1.62;;;;;;;13.60;87.46;99205.48;4144722;84;22066;-83
2022/07/13 02:58:01;;;;;;;3.90;1.60;;;;;;;13.57;87.54;99202.72;4135978;84;21104;-83
2022/07/13 03:21:42;;;;;;;6.35;1.98;;;;;;;13.78;87.03;99222.03;4404839;79;28978;-84
2022/07/13 03:28:00;;;;;;;3.83;1.65;;;;;;;13.73;87.50;99230.66;4363047;80;21022;-84
2022/07/13 03:34:23;;;;;;;5.80;2.15;;;;;;;13.69;87.38;99222.97;4327916;80;21586;-84
2022/07/13 03:40:30;;;;;;;4.20;1.77;;;;;;;13.69;87.42;99228.47;4409997;78;21976;-84
2022/07/13 03:46:35;;;;;;;4.53;2.05;;;;;;;13.68;87.49;99226.91;4395575;78;21575;-84
2022/07/13 03:52:36;;;;;;;4.15;2.20;;;;;;;13.60;87.15;99226.11;4323143;80;21038;-85
2022/07/13 03:58:56;;;;;;;9.00;2.70;;;;;;;13.60;87.78;99237.69;4359434;80;21506;-83
2022/07/13 04:05:48;;;;;;;9.48;2.60;;;;;;;13.64;87.91;99238.50;4318112;80;21052;-84
2022/07/13 04:12:13;;;;;;;4.78;2.50;;;;;;;13.69;87.95;99237.52;4300604;81;21045;-84
2022/07/13 04:18:14;;;;;;;7.00;2.45;;;;;;;13.76;88.01;99227.12;4362591;78;21086;-84
2022/07/13 04:24:18;;;;;;;7.97;2.77;;;;;;;13.85;87.94;99226.16;4357827;79;21063;-84
2022/07/13 04:30:20;;;;;;;6.05;2.50;;;;;;;13.94;88.02;99223.80;4327639;79;20995;-86
2022/07/13 04:36:22;;;;;;;4.90;2.25;;;;;;;14.03;87.98;99228.36;4335991;80;21051;-84
2022/07/13 04:42:23;;;;;;;3.60;1.98;;;;;;;14.13;88.17;99231.69;4347548;79;22082;-85
2022/07/13 04:48:26;;;;;;;4.10;2.10;;;;;;;14.28;88.16;99236.07;4320864;80;20920;-84
2022/07/13 04:54:28;;;;;;;4.12;1.90;;;;;;;14.42;88.22;99237.45;4384686;78;20985;-84
2022/07/13 05:00:30;;;;;;;4.85;2.00;;;;;;;14.54;88.21;99245.30;4308136;81;21092;-85
2022/07/13 05:06:32;;;;;;;5.40;2.00;;;;;;;14.66;88.29;99245.49;4312308;80;21063;-84
2022/07/13 05:12:40;;;;;;;6.12;2.05;;;;;;;14.81;88.30;99245.66;4301145;81;21116;-84
2022/07/13 05:18:56;;;;;;;5.10;1.90;;;;;;;14.95;88.30;99248.38;4298662;80;21017;-84
2022/07/13 05:25:00;;;;;;;3.58;1.82;;;;;;;15.15;88.27;99230.98;4330307;80;21082;-84
2022/07/13 05:31:02;;;;;;;5.65;1.70;;;;;;;15.33;88.30;99237.83;4317428;80;21013;-84
2022/07/13 05:37:05;;;;;;;3.65;1.52;;;;;;;15.59;88.06;99239.50;4270846;80;21141;-84
2022/07/13 05:43:10;;;;;;;5.90;1.98;;;;;;;15.89;87.70;99241.70;4302222;81;21518;-85
2022/07/13 05:49:18;;;;;;;5.45;1.75;;;;;;;16.10;87.59;99229.73;4313322;80;21052;-85
2022/07/13 05:55:27;;;;;;;7.33;2.10;;;;;;;16.21;87.40;99239.48;4315655;80;21084;-84
2022/07/13 06:01:29;;;;;;;2.83;1.72;;;;;;;16.34;87.30;99236.44;4332867;80;21039;-83
2022/07/13 06:14:09;;;;;;;5.92;2.20;;;;;;;16.58;86.54;99241.00;4313728;80;21128;-84
2022/07/13 06:20:11;;;;;;;4.97;2.30;;;;;;;16.78;86.72;99235.08;4293502;80;21909;-83
2022/07/13 06:26:14;;;;;;;2.42;1.85;;;;;;;16.94;86.58;99233.91;4327632;80;21193;-84
2022/07/13 06:32:22;;;;;;;4.72;2.05;;;;;;;17.08;86.22;99236.55;4307320;81;21041;-83
2022/07/13 06:38:24;;;;;;;3.08;1.57;;;;;;;17.27;85.97;99249.55;4388836;79;21119;-83
2022/07/13 06:44:25;;;;;;;2.47;1.42;;;;;;;17.45;85.54;99245.41;4326562;80;21059;-83
2022/07/13 06:50:38;;;;;;;5.75;1.98;;;;;;;17.69;84.65;99239.36;4304032;80;21047;-84
2022/07/13 06:56:39;;;;;;;5.70;2.00;;;;;;;18.10;85.37;99239.34;4329540;81;21998;-83
2022/07/13 07:02:40;;;;;;;3.20;1.30;;;;;;;18.79;85.13;99235.87;4320946;80;21504;-85
2022/07/13 07:08:49;;;;;;;2.15;1.30;;;;;;;19.55;84.42;99232.80;4389593;79;21061;-83
2022/07/13 07:14:50;;;;;;;2.87;1.22;;;;;;;20.32;83.51;99232.26;4339500;80;21035;-83
2022/07/13 07:21:00;;;;;;;2.98;1.72;;;;;;;21.04;82.77;99226.64;4322879;80;21049;-84
2022/07/13 07:27:02;;;;;;;3.60;1.90;;;;;;;21.58;81.78;99226.09;4323777;80;21014;-86
2022/07/13 07:33:24;;;;;;;2.58;1.40;;;;;;;22.12;80.16;99231.61;4321156;80;21705;-85
2022/07/13 07:39:25;;;;;;;4.03;1.52;;;;;;;22.35;78.45;99232.05;4295880;81;21027;-84
2022/07/13 07:45:27;;;;;;;3.25;1.40;;;;;;;22.35;77.58;99227.86;4322893;80;21713;-85
2022/07/13 07:51:28;;;;;;;6.05;1.40;;;;;;;22.59;76.73;99222.11;4318720;80;22327;-84
2022/07/13 07:57:30;;;;;;;6.60;1.27;;;;;;;22.78;76.06;99228.04;4319699;80;21048;-85
2022/07/13 08:03:31;;;;;;;4.35;1.30;;;;;;;22.73;74.74;99232.80;4334765;80;20990;-85
2022/07/13 08:09:46;;;;;;;2.02;1.32;;;;;;;22.51;73.94;99233.34;4324848;80;21056;-85
2022/07/13 08:15:53;;;;;;;2.85;1.20;;;;;;;22.54;72.64;99232.44;4320743;82;21590;-85
2022/07/13 08:22:02;;;;;;;2.95;1.25;;;;;;;22.56;72.28;99226.41;4320038;81;21041;-85
2022/07/13 08:28:04;;;;;;;3.62;1.20;;;;;;;22.44;71.58;99229.98;4321698;80;21150;-85
2022/07/13 08:40:25;;;;;;;2.90;1.10;;;;;;;22.53;70.01;99230.10;4294055;80;21084;-84
2022/07/13 08:46:27;;;;;;;10.18;1.75;;;;;;;22.60;69.86;99220.88;4329380;81;21020;-85
2022/07/13 08:52:43;;;;;;;1.72;1.02;;;;;;;22.68;69.45;99218.02;4313642;80;20998;-84
2022/07/13 08:58:45;;;;;;;5.22;1.30;;;;;;;22.67;68.68;99210.09;4318648;80;21050;-84
2022/07/13 09:04:46;;;;;;;4.25;1.20;;;;;;;22.69;68.14;99219.56;4389060;78;21066;-84
2022/07/13 09:11:05;;;;;;;4.37;1.12;;;;;;;22.79;68.03;99217.64;4323294;81;21553;-84
2022/07/13 09:17:23;;;;;;;6.53;1.40;;;;;;;22.77;66.89;99219.48;4358884;79;21578;-84
2022/07/13 09:23:30;;;;;;;4.22;1.00;;;;;;;22.84;67.20;99224.05;4366742;80;21051;-85
2022/07/13 09:29:36;;;;;;;1.82;0.98;;;;;;;23.10;67.03;99217.13;4379304;79;21983;-85
2022/07/13 09:35:52;;;;;;;2.55;1.10;;;;;;;23.42;66.18;99210.41;4331660;80;21076;-86
2022/07/13 09:41:54;;;;;;;3.37;1.25;;;;;;;23.88;65.63;99199.02;4322062;81;21392;-84
2022/07/13 09:47:57;;;;;;;4.40;1.15;;;;;;;24.34;62.66;99206.98;4343576;81;21905;-85
2022/07/13 09:54:02;;;;;;;2.15;1.07;;;;;;;25.19;63.20;99206.33;4295902;80;20968;-85
2022/07/13 10:00:11;;;;;;;3.00;1.00;;;;;;;25.19;63.20;99206.33;4328704;80;21992;-85
2022/07/13 10:06:26;;;;;;;1.75;1.02;;;;;;;25.14;62.97;99213.95;4312056;80;21006;-85
2022/07/13 10:12:29;;;;;;;3.55;1.20;;;;;;;25.31;62.08;99206.78;4335152;82;21496;-85
2022/07/13 10:18:44;;;;;;;3.27;1.10;;;;;;;25.48;60.93;99203.06;4293598;82;21024;-85
2022/07/13 10:24:54;;;;;;;0.77;0.77;;;;;;;25.88;60.82;99205.75;4302279;81;21120;-85
2022/07/13 10:30:56;;;;;;;4.35;0.80;;;;;;;25.90;59.84;99203.88;4285100;80;21000;-86
2022/07/13 10:37:00;;;;;;;3.58;0.80;;;;;;;26.27;58.54;99195.47;4322932;80;21108;-86
2022/07/13 10:43:18;;;;;;;2.05;0.80;;;;;;;26.85;58.00;99193.56;4288909;80;21010;-86
2022/07/13 10:49:51;;;;;;;1.72;0.70;;;;;;;27.23;56.86;99189.34;4398330;78;21041;-86
2022/07/13 10:55:52;;;;;;;2.17;0.70;;;;;;;26.97;55.73;99203.78;4397553;79;21908;-87
2022/07/13 11:01:54;;;;;;;2.08;0.95;;;;;;;26.94;53.83;99213.93;4312425;80;21099;-85
2022/07/13 11:07:56;;;;;;;1.22;0.80;;;;;;;26.27;54.44;99205.91;4383042;79;22028;-85
2022/07/13 11:13:57;;;;;;;7.40;0.98;;;;;;;26.65;54.59;99202.61;4310931;80;21081;-85
2022/07/13 11:20:09;;;;;;;2.40;1.07;;;;;;;27.39;54.17;99205.78;4299839;81;21071;-86
2022/07/13 11:26:51;;;;;;;3.02;0.72;;;;;;;27.89;53.50;99209.48;4313018;80;21039;-85
2022/07/13 11:32:53;;;;;;;2.85;0.90;;;;;;;28.25;53.19;99199.97;4330455;80;20985;-85
2022/07/13 11:38:55;;;;;;;5.92;1.37;;;;;;;28.78;52.24;99188.42;4302967;80;21012;-85
2022/07/13 11:44:56;;;;;;;2.27;1.15;;;;;;;29.19;52.06;99179.31;4320688;80;21059;-85
2022/07/13 11:51:11;;;;;;;1.87;0.80;;;;;;;29.40;51.62;99182.20;4318373;80;21012;-86
2022/07/13 11:57:17;;;;;;;3.92;1.05;;;;;;;29.41;50.08;99168.27;4282599;81;21606;-87
2022/07/13 12:03:32;;;;;;;;;;;;;;;29.33;48.54;99170.76;4307334;80;21549;-86
2022/07/13 12:09:33;;;;;;;2.95;0.90;;;;;;;29.05;48.38;99171.83;4324645;81;20188;-86
2022/07/13 12:15:35;;;;;;;1.32;0.82;;;;;;;28.78;47.93;99164.47;4317487;80;21022;-86
2022/07/13 12:21:44;;;;;;;1.62;1.00;;;;;;;28.43;47.40;99163.72;4323316;80;21024;-86
2022/07/13 12:27:47;;;;;;;4.30;1.17;;;;;;;27.90;46.71;99171.63;4288449;79;21015;-86
2022/07/13 12:33:52;;;;;;;4.12;1.17;;;;;;;27.26;46.96;99171.54;4282112;80;21652;-86
2022/07/13 12:39:58;;;;;;;2.87;1.00;;;;;;;27.02;47.29;99155.33;4327941;79;21062;-86
2022/07/13 12:46:02;;;;;;;3.05;0.85;;;;;;;26.57;46.62;99166.29;4306034;81;21027;-84
2022/07/13 12:52:08;;;;;;;1.62;1.10;;;;;;;26.15;46.83;99157.95;4361053;80;21023;-85
2022/07/13 12:58:11;;;;;;;1.32;0.88;;;;;;;26.13;46.27;99153.47;4393444;79;20984;-83
2022/07/13 13:04:12;;;;;;;2.60;0.70;;;;;;;26.25;45.76;99149.51;4301050;80;21479;-84
2022/07/13 13:10:14;;;;;;;1.25;0.90;;;;;;;26.36;45.68;99146.30;4303548;80;21035;-85
2022/07/13 13:16:15;;;;;;;3.37;1.20;;;;;;;26.36;45.30;99144.89;4318757;80;21555;-84
2022/07/13 13:22:17;;;;;;;2.58;1.25;;;;;;;26.40;45.58;99134.28;4290119;80;21604;-83
2022/07/13 13:28:18;;;;;;;4.72;1.10;;;;;;;26.38;46.41;99142.39;4299614;80;20996;-83
2022/07/13 13:34:20;;;;;;;3.00;0.68;;;;;;;26.35;45.57;99150.38;4305687;80;21075;-82
2022/07/13 13:40:21;;;;;;;3.72;0.95;;;;;;;26.34;45.42;99142.43;4293595;80;21412;-85
2022/07/13 13:46:22;;;;;;;2.92;0.85;;;;;;;26.30;45.87;99145.41;4286623;81;21067;-83
2022/07/13 13:52:23;;;;;;;2.05;0.70;;;;;;;26.32;46.56;99151.33;4318102;80;21131;-84
2022/07/13 13:58:25;;;;;;;1.62;0.68;;;;;;;26.27;46.12;99149.78;4298596;81;21004;-83
2022/07/13 14:04:26;;;;;;;3.42;0.70;;;;;;;26.28;46.18;99142.30;4287175;81;21017;-84
2022/07/13 14:10:27;;;;;;;0.98;0.60;;;;;;;26.38;46.41;99138.80;4315410;80;21515;-85
2022/07/13 14:16:28;;;;;;;0.93;0.70;;;;;;;26.46;46.13;99134.39;4318149;80;21989;-84
2022/07/13 14:22:30;;;;;;;1.72;0.70;;;;;;;26.42;46.13;99137.37;4309298;81;21012;-85
2022/07/13 14:28:31;;;;;;;2.87;0.75;;;;;;;26.12;46.36;99126.64;4306670;81;21073;-85
2022/07/13 14:34:33;;;;;;;2.77;0.60;;;;;;;25.94;46.63;99121.73;4297784;80;21050;-84
2022/07/13 14:40:34;;;;;;;3.55;0.62;;;;;;;25.93;46.53;99118.80;4311078;80;21086;-83
2022/07/13 14:46:35;;;;;;;1.87;0.80;;;;;;;25.84;46.67;99125.86;4319345;80;21057;-83
2022/07/13 14:52:37;;;;;;;6.92;0.98;;;;;;;25.67;46.50;99132.45;4303305;81;21008;-83
2022/07/13 14:58:38;;;;;;;2.50;1.20;;;;;;;25.52;47.22;99122.39;4292979;81;21593;-83
2022/07/13 15:04:40;;;;;;;3.27;1.05;;;;;;;25.45;47.52;99124.89;4304802;81;21808;-83
2022/07/13 15:10:42;;;;;;;1.37;0.85;;;;;;;25.36;47.45;99123.52;4291098;81;20996;-82
2022/07/13 15:16:44;;;;;;;2.12;1.17;;;;;;;25.26;47.45;99119.80;4288983;80;21590;-83
2022/07/13 15:22:45;;;;;;;1.60;0.93;;;;;;;25.30;48.01;99114.17;4280801;80;21070;-84
2022/07/13 15:28:46;;;;;;;1.42;1.00;;;;;;;25.13;47.87;99096.78;4373743;79;20992;-84
2022/07/13 15:34:49;;;;;;;1.87;1.00;;;;;;;25.13;48.28;99112.97;4311945;80;21059;-85
2022/07/13 15:47:15;;;;;;;2.27;1.02;;;;;;;25.33;47.91;99115.25;4322066;80;20999;-86
2022/07/13 15:53:17;;;;;;;2.60;1.00;;;;;;;25.35;48.40;99109.37;4306470;80;21593;-87
2022/07/13 15:59:23;;;;;;;1.15;0.90;;;;;;;25.18;49.00;99097.55;4292151;81;21086;-87
2022/07/13 16:05:24;;;;;;;1.80;0.90;;;;;;;24.99;49.08;99091.83;4333377;80;21081;-87
2022/07/13 16:11:27;;;;;;;1.37;0.72;;;;;;;24.80;48.96;99082.69;4311077;81;21669;-86
2022/07/13 16:17:29;;;;;;;2.17;0.88;;;;;;;24.67;49.65;99082.06;4300974;81;21047;-86
2022/07/13 16:23:30;;;;;;;2.95;1.30;;;;;;;24.50;50.50;99076.59;4405732;79;21000;-87
2022/07/13 16:29:31;;;;;;;1.37;1.10;;;;;;;24.46;50.73;99083.74;4334412;80;21003;-87
2022/07/13 16:35:33;;;;;;;5.17;1.30;;;;;;;24.44;50.52;99078.47;4278024;80;21048;-86
2022/07/13 16:41:34;;;;;;;1.30;0.90;;;;;;;24.38;50.75;99088.09;4312267;80;21018;-86
2022/07/13 16:47:36;;;;;;;2.50;1.27;;;;;;;24.28;50.95;99082.95;4307799;81;21017;-86
2022/07/13 16:53:37;;;;;;;1.75;1.02;;;;;;;24.15;51.63;99080.30;4343627;80;21011;-86
2022/07/13 16:59:39;;;;;;;1.10;1.00;;;;;;;24.06;51.44;99075.31;4314269;80;21605;-86
2022/07/13 17:05:40;;;;;;;2.08;1.00;;;;;;;24.00;51.42;99072.97;4374972;79;21031;-86
2022/07/13 17:11:41;;;;;;;2.27;1.02;;;;;;;23.96;51.73;99066.13;4301288;80;20947;-86
2022/07/13 17:17:42;;;;;;;8.23;2.12;;;;;;;23.92;51.77;99063.29;4206948;79;10000444;-86
2022/07/13 17:23:44;;;;;;;1.32;0.90;;;;;;;23.94;51.93;99067.81;4319421;79;21944;-85
2022/07/13 17:29:46;;;;;;;0.95;0.80;;;;;;;23.95;52.01;99074.95;4335484;79;21515;-86
2022/07/13 17:35:47;;;;;;;2.67;1.15;;;;;;;23.93;52.37;99068.42;4351753;78;20968;-86
2022/07/13 17:41:48;;;;;;;3.80;1.50;;;;;;;23.90;52.44;99075.58;4366111;80;21395;-86
2022/07/13 17:47:49;;;;;;;3.35;1.35;;;;;;;23.82;52.47;99069.48;4307489;80;21030;-87
2022/07/13 17:53:52;;;;;;;2.17;1.15;;;;;;;23.75;52.54;99070.39;4376097;79;21169;-87
2022/07/13 17:59:54;;;;;;;2.95;1.30;;;;;;;23.63;52.64;99074.88;4299147;80;21019;-87
2022/07/13 18:05:55;;;;;;;4.37;1.60;;;;;;;23.57;52.72;99071.74;4374167;79;21029;-86
2022/07/13 18:11:56;;;;;;;2.55;1.47;;;;;;;23.46;52.93;99086.11;4385182;78;20988;-85
2022/07/13 18:17:59;;;;;;;2.72;1.57;;;;;;;23.39;53.08;99081.42;4377568;79;21497;-86
2022/07/13 18:24:03;;;;;;;4.78;1.85;;;;;;;23.30;53.45;99086.37;4387021;80;20984;-86
2022/07/13 18:30:08;;;;;;;5.10;2.20;;;;;;;23.17;53.64;99082.23;4300637;80;21051;-85
2022/07/13 18:36:09;;;;;;;6.40;1.85;;;;;;;23.01;53.93;99086.63;4300173;80;20994;-86
2022/07/13 18:42:11;;;;;;;5.22;1.98;;;;;;;22.84;54.20;99090.86;4375676;79;20983;-85
2022/07/13 18:48:12;;;;;;;10.82;2.60;;;;;;;22.69;54.50;99093.99;4306618;80;21026;-85
2022/07/13 18:54:14;;;;;;;4.67;2.00;;;;;;;22.55;54.70;99091.71;4321772;80;20973;-86
2022/07/13 19:00:17;;;;;;;4.05;1.70;;;;;;;22.38;55.34;99093.09;4324989;80;21064;-86
2022/07/13 19:06:19;;;;;;;5.72;1.82;;;;;;;22.26;55.59;99100.09;4390762;80;21606;-85
2022/07/13 19:12:21;;;;;;;6.35;2.37;;;;;;;21.99;55.89;99104.03;4296715;80;21023;-86
2022/07/13 19:18:22;;;;;;;8.45;2.45;;;;;;;21.74;56.44;99116.72;4329025;80;21062;-85
2022/07/13 19:27:11;;;;;;;4.78;2.60;;;;;;;21.66;57.34;99117.37;4329569;79;21620;-86
2022/07/13 19:30:36;;;;;;;5.45;2.40;;;;;;;21.54;57.78;99117.56;4302437;81;21036;-86
2022/07/13 19:36:37;;;;;;;2.77;1.80;;;;;;;21.42;58.23;99119.70;4298660;80;21043;-85
2022/07/13 19:42:40;;;;;;;7.70;2.58;;;;;;;21.23;58.45;99111.56;4319020;79;21042;-87
2022/07/13 19:48:41;;;;;;;4.08;2.22;;;;;;;21.00;58.99;99104.27;4328940;79;21031;-87
2022/07/13 19:54:43;;;;;;;6.05;2.47;;;;;;;20.92;59.47;99104.91;4349797;78;21005;-86
2022/07/13 20:00:44;;;;;;;3.50;2.10;;;;;;;20.84;59.97;99114.07;4343992;79;21034;-87
2022/07/13 20:06:46;;;;;;;3.47;2.37;;;;;;;20.78;60.50;99117.83;4313005;79;21081;-86
2022/07/13 20:12:49;;;;;;;4.30;1.87;;;;;;;20.70;60.68;99123.41;4308532;79;21015;-86
2022/07/13 20:18:51;;;;;;;4.65;2.27;;;;;;;20.64;60.50;99120.38;4228184;79;9999840;-87
2022/07/13 20:24:52;;;;;;;3.60;2.00;;;;;;;20.56;60.54;99112.08;4345855;79;21854;-87
2022/07/13 20:30:55;;;;;;;3.83;2.30;;;;;;;20.48;60.64;99119.64;4316755;79;22208;-87
2022/07/13 20:37:00;;;;;;;3.62;1.98;;;;;;;20.40;61.39;99114.89;4335992;79;20996;-86
2022/07/13 20:43:03;;;;;;;3.77;1.72;;;;;;;20.36;62.02;99123.16;4325103;79;21073;-86
2022/07/13 20:49:04;;;;;;;3.80;2.02;;;;;;;20.31;62.44;99123.08;4348543;78;21525;-86
2022/07/13 20:55:09;;;;;;;3.75;1.80;;;;;;;20.28;62.53;99120.38;4339696;79;21075;-86
2022/07/13 21:01:11;;;;;;;4.87;2.22;;;;;;;20.25;62.94;99120.62;4342523;78;21031;-86
2022/07/13 21:07:12;;;;;;;2.55;1.90;;;;;;;20.17;62.56;99120.66;4321337;79;21047;-86
2022/07/13 21:13:17;;;;;;;4.00;1.57;;;;;;;20.14;62.88;99116.73;4309079;79;21044;-86
2022/07/13 21:19:18;;;;;;;3.77;2.05;;;;;;;20.14;63.03;99116.73;4337412;79;20956;-86
2022/07/13 21:31:40;;;;;;;4.60;1.55;;;;;;;20.06;63.81;99123.66;4316328;80;21694;-86
2022/07/13 21:37:43;;;;;;;7.37;3.17;;;;;;;20.04;64.96;99119.16;4311695;80;21508;-87
2022/07/13 21:43:44;;;;;;;8.70;2.47;;;;;;;20.00;64.46;99121.23;4312104;80;21568;-86
2022/07/13 21:49:46;;;;;;;6.53;2.40;;;;;;;19.96;64.46;99114.20;4312202;80;21054;-85
2022/07/13 21:55:48;;;;;;;12.23;2.70;;;;;;;19.94;64.37;99112.45;4353601;79;21032;-87
2022/07/13 22:02:10;;;;;;;5.75;2.45;;;;;;;19.93;64.98;99107.53;4326691;79;21864;-87
2022/07/13 22:08:11;;;;;;;2.77;1.90;;;;;;;19.90;64.98;99107.02;4323337;79;21076;-86
2022/07/13 22:15:09;;;;;;;4.17;1.90;;;;;;;19.90;65.40;99108.41;4352760;79;21535;-85
2022/07/13 22:21:49;;;;;;;;;;;;;;;19.86;64.64;99105.52;4319224;79;21033;-86
2022/07/13 22:28:46;;;;;;;6.40;2.00;;;;;;;19.87;64.46;99109.24;4343826;79;20238;-85
2022/07/13 22:35:44;;;;;;;3.25;1.98;;;;;;;19.87;64.33;99102.92;4309277;80;21570;-86
2022/07/13 22:42:42;;;;;;;5.00;1.85;;;;;;;19.88;65.07;99095.55;4319584;81;21588;-86
2022/07/13 22:49:39;;;;;;;2.98;1.67;;;;;;;19.88;65.20;99099.72;4307280;80;21131;-84
2022/07/13 22:56:36;;;;;;;7.57;2.13;;;;;;;19.81;64.91;99094.31;4372582;80;21559;-85
2022/07/13 23:03:33;;;;;;;3.03;1.80;;;;;;;19.76;64.65;99094.83;4315874;79;21044;-86
2022/07/13 23:10:30;;;;;;;3.17;1.85;;;;;;;19.78;65.42;99085.47;4304314;81;21037;-86
2022/07/13 23:17:28;;;;;;;3.07;1.93;;;;;;;19.79;65.60;99087.64;4316056;81;21027;-86
2022/07/13 23:24:25;;;;;;;3.45;1.87;;;;;;;19.74;65.73;99078.44;4317651;80;21665;-86
2022/07/13 23:30:58;;;;;;;5.60;2.02;;;;;;;19.65;66.11;99069.34;4286306;81;21084;-86
2022/07/13 23:37:00;;;;;;;5.62;2.00;;;;;;;19.60;66.86;99071.23;4314235;80;21023;-86
2022/07/13 23:43:02;;;;;;;8.50;2.33;;;;;;;19.57;67.91;99066.55;4297433;80;21051;-85
2022/07/13 23:49:04;;;;;;;5.78;2.20;;;;;;;19.55;68.20;99068.19;4315204;81;22240;-86
2022/07/13 23:55:06;;;;;;;4.00;1.85;;;;;;;19.49;68.66;99071.30;4307327;80;21037;-86
